sensor_id;sensor_type;location;lat;lon;timestamp;temperature;humidity
49224;DHT22;35050;51.316;5.994;2022-10-22T00:00:45;13.90;99.90
49224;DHT22;35050;51.316;5.994;2022-10-22T00:03:10;14.00;99.90
49224;DHT22;35050;51.316;5.994;2022-10-22T00:05:36;13.90;99.90
49224;DHT22;35050;51.316;5.994;2022-10-22T00:08:01;13.90;99.90
49224;DHT22;35050;51.316;5.994;2022-10-22T00:10:27;14.00;99.90
49224;DHT22;35050;51.316;5.994;2022-10-22T00:12:53;13.90;99.90
49224;DHT22;35050;51.316;5.994;2022-10-22T00:15:19;13.90;99.90
49224;DHT22;35050;51.316;5.994;2022-10-22T00:17:44;13.90;99.90
49224;DHT22;35050;51.316;5.994;2022-10-22T00:20:10;13.90;99.90
49224;DHT22;35050;51.316;5.994;2022-10-22T00:22:35;13.80;99.90
49224;DHT22;35050;51.316;5.994;2022-10-22T00:25:01;13.80;99.90
49224;DHT22;35050;51.316;5.994;2022-10-22T00:27:26;13.80;99.90
49224;DHT22;35050;51.316;5.994;2022-10-22T00:29:52;13.80;99.90
49224;DHT22;35050;51.316;5.994;2022-10-22T00:32:17;13.80;99.90
49224;DHT22;35050;51.316;5.994;2022-10-22T00:34:43;13.80;99.90
49224;DHT22;35050;51.316;5.994;2022-10-22T00:37:08;13.80;99.90
49224;DHT22;35050;51.316;5.994;2022-10-22T00:39:34;13.80;99.90
49224;DHT22;35050;51.316;5.994;2022-10-22T00:41:59;13.90;99.90
49224;DHT22;35050;51.316;5.994;2022-10-22T00:47:09;13.80;99.90
49224;DHT22;35050;51.316;5.994;2022-10-22T00:49:35;13.90;99.90
49224;DHT22;35050;51.316;5.994;2022-10-22T00:52:00;13.90;99.90
49224;DHT22;35050;51.316;5.994;2022-10-22T00:54:26;13.80;99.90
49224;DHT22;35050;51.316;5.994;2022-10-22T00:56:51;13.80;99.90
49224;DHT22;35050;51.316;5.994;2022-10-22T00:59:17;13.80;99.90
49224;DHT22;35050;51.316;5.994;2022-10-22T01:01:42;13.80;99.90
49224;DHT22;35050;51.316;5.994;2022-10-22T01:04:09;13.70;99.90
49224;DHT22;35050;51.316;5.994;2022-10-22T01:06:35;13.80;99.90
49224;DHT22;35050;51.316;5.994;2022-10-22T01:11:48;13.80;99.90
49224;DHT22;35050;51.316;5.994;2022-10-22T01:14:18;13.80;99.90
49224;DHT22;35050;51.316;5.994;2022-10-22T01:21:41;13.90;99.90
49224;DHT22;35050;51.316;5.994;2022-10-22T01:24:18;13.90;99.90
49224;DHT22;35050;51.316;5.994;2022-10-22T01:31:55;13.80;99.90
49224;DHT22;35050;51.316;5.994;2022-10-22T01:34:22;13.80;99.90
49224;DHT22;35050;51.316;5.994;2022-10-22T01:36:49;13.80;99.90
49224;DHT22;35050;51.316;5.994;2022-10-22T01:39:15;13.80;99.90
49224;DHT22;35050;51.316;5.994;2022-10-22T01:41:42;13.90;99.90
49224;DHT22;35050;51.316;5.994;2022-10-22T01:55:06;13.80;99.90
49224;DHT22;35050;51.316;5.994;2022-10-22T01:57:43;13.80;99.90
49224;DHT22;35050;51.316;5.994;2022-10-22T02:00:12;13.80;99.90
49224;DHT22;35050;51.316;5.994;2022-10-22T02:02:47;13.70;99.90
49224;DHT22;35050;51.316;5.994;2022-10-22T02:05:15;13.70;99.90
49224;DHT22;35050;51.316;5.994;2022-10-22T02:07:43;13.70;99.90
49224;DHT22;35050;51.316;5.994;2022-10-22T02:10:11;13.70;99.90
49224;DHT22;35050;51.316;5.994;2022-10-22T02:12:37;13.80;99.90
49224;DHT22;35050;51.316;5.994;2022-10-22T02:15:03;13.70;99.90
49224;DHT22;35050;51.316;5.994;2022-10-22T02:17:30;13.70;99.90
49224;DHT22;35050;51.316;5.994;2022-10-22T02:20:02;13.70;99.90
49224;DHT22;35050;51.316;5.994;2022-10-22T02:22:30;13.80;99.90
49224;DHT22;35050;51.316;5.994;2022-10-22T02:24:56;13.70;99.90
49224;DHT22;35050;51.316;5.994;2022-10-22T02:27:40;13.70;99.90
49224;DHT22;35050;51.316;5.994;2022-10-22T02:30:12;13.80;99.90
49224;DHT22;35050;51.316;5.994;2022-10-22T02:32:40;13.70;99.90
49224;DHT22;35050;51.316;5.994;2022-10-22T02:35:07;13.70;99.90
49224;DHT22;35050;51.316;5.994;2022-10-22T02:37:35;13.70;99.90
49224;DHT22;35050;51.316;5.994;2022-10-22T02:40:01;13.80;99.90
49224;DHT22;35050;51.316;5.994;2022-10-22T02:42:27;13.80;99.90
49224;DHT22;35050;51.316;5.994;2022-10-22T02:44:52;13.80;99.90
49224;DHT22;35050;51.316;5.994;2022-10-22T02:47:18;13.70;99.90
49224;DHT22;35050;51.316;5.994;2022-10-22T02:49:44;13.70;99.90
49224;DHT22;35050;51.316;5.994;2022-10-22T02:52:09;13.70;99.90
49224;DHT22;35050;51.316;5.994;2022-10-22T02:54:35;13.70;99.90
49224;DHT22;35050;51.316;5.994;2022-10-22T02:57:00;13.70;99.90
49224;DHT22;35050;51.316;5.994;2022-10-22T02:59:25;13.70;99.90
49224;DHT22;35050;51.316;5.994;2022-10-22T03:01:51;13.70;99.90
49224;DHT22;35050;51.316;5.994;2022-10-22T03:04:16;13.60;99.90
49224;DHT22;35050;51.316;5.994;2022-10-22T03:06:42;13.60;99.90
49224;DHT22;35050;51.316;5.994;2022-10-22T03:09:09;13.60;99.90
49224;DHT22;35050;51.316;5.994;2022-10-22T03:11:34;13.60;99.90
49224;DHT22;35050;51.316;5.994;2022-10-22T03:14:00;13.50;99.90
49224;DHT22;35050;51.316;5.994;2022-10-22T03:16:25;13.50;99.90
49224;DHT22;35050;51.316;5.994;2022-10-22T03:18:51;13.50;99.90
49224;DHT22;35050;51.316;5.994;2022-10-22T03:21:31;13.50;99.90
49224;DHT22;35050;51.316;5.994;2022-10-22T03:23:59;13.50;99.90
49224;DHT22;35050;51.316;5.994;2022-10-22T03:26:25;13.50;99.90
49224;DHT22;35050;51.316;5.994;2022-10-22T03:28:51;13.40;99.90
49224;DHT22;35050;51.316;5.994;2022-10-22T03:31:17;13.40;99.90
49224;DHT22;35050;51.316;5.994;2022-10-22T03:33:43;13.30;99.90
49224;DHT22;35050;51.316;5.994;2022-10-22T03:36:08;13.30;99.90
49224;DHT22;35050;51.316;5.994;2022-10-22T03:38:35;13.40;99.90
49224;DHT22;35050;51.316;5.994;2022-10-22T03:41:01;13.40;99.90
49224;DHT22;35050;51.316;5.994;2022-10-22T03:43:27;13.30;99.90
49224;DHT22;35050;51.316;5.994;2022-10-22T03:45:53;13.30;99.90
49224;DHT22;35050;51.316;5.994;2022-10-22T03:48:18;13.30;99.90
49224;DHT22;35050;51.316;5.994;2022-10-22T03:50:44;13.30;99.90
49224;DHT22;35050;51.316;5.994;2022-10-22T03:53:09;13.30;99.90
49224;DHT22;35050;51.316;5.994;2022-10-22T03:55:35;13.30;99.90
49224;DHT22;35050;51.316;5.994;2022-10-22T03:58:03;13.30;99.90
49224;DHT22;35050;51.316;5.994;2022-10-22T04:00:28;13.30;99.90
49224;DHT22;35050;51.316;5.994;2022-10-22T04:02:54;13.30;99.90
49224;DHT22;35050;51.316;5.994;2022-10-22T04:05:19;13.20;99.90
49224;DHT22;35050;51.316;5.994;2022-10-22T04:07:45;13.20;99.90
49224;DHT22;35050;51.316;5.994;2022-10-22T04:10:10;13.20;99.90
49224;DHT22;35050;51.316;5.994;2022-10-22T04:12:36;13.20;99.90
49224;DHT22;35050;51.316;5.994;2022-10-22T04:15:01;13.20;99.90
49224;DHT22;35050;51.316;5.994;2022-10-22T04:17:31;13.10;99.90
49224;DHT22;35050;51.316;5.994;2022-10-22T04:19:57;13.20;99.90
49224;DHT22;35050;51.316;5.994;2022-10-22T04:22:22;13.20;99.90
49224;DHT22;35050;51.316;5.994;2022-10-22T04:24:48;13.20;99.90
49224;DHT22;35050;51.316;5.994;2022-10-22T04:27:13;13.30;99.90
49224;DHT22;35050;51.316;5.994;2022-10-22T04:29:39;13.30;99.90
49224;DHT22;35050;51.316;5.994;2022-10-22T04:32:04;13.30;99.90
49224;DHT22;35050;51.316;5.994;2022-10-22T04:34:30;13.20;99.90
49224;DHT22;35050;51.316;5.994;2022-10-22T04:36:56;13.20;99.90
49224;DHT22;35050;51.316;5.994;2022-10-22T04:39:22;13.30;99.90
49224;DHT22;35050;51.316;5.994;2022-10-22T04:41:47;13.10;99.90
49224;DHT22;35050;51.316;5.994;2022-10-22T04:44:13;13.20;99.90
49224;DHT22;35050;51.316;5.994;2022-10-22T04:46:38;13.20;99.90
49224;DHT22;35050;51.316;5.994;2022-10-22T04:49:04;13.10;99.90
49224;DHT22;35050;51.316;5.994;2022-10-22T04:51:29;13.10;99.90
49224;DHT22;35050;51.316;5.994;2022-10-22T04:53:55;13.10;99.90
49224;DHT22;35050;51.316;5.994;2022-10-22T04:56:21;13.10;99.90
49224;DHT22;35050;51.316;5.994;2022-10-22T04:58:48;13.00;99.90
49224;DHT22;35050;51.316;5.994;2022-10-22T05:01:18;13.10;99.90
49224;DHT22;35050;51.316;5.994;2022-10-22T05:03:44;13.00;99.90
49224;DHT22;35050;51.316;5.994;2022-10-22T05:06:10;13.00;99.90
49224;DHT22;35050;51.316;5.994;2022-10-22T05:08:36;13.10;99.90
49224;DHT22;35050;51.316;5.994;2022-10-22T05:11:09;13.10;99.90
49224;DHT22;35050;51.316;5.994;2022-10-22T05:13:34;13.00;99.90
49224;DHT22;35050;51.316;5.994;2022-10-22T05:16:00;13.10;99.90
49224;DHT22;35050;51.316;5.994;2022-10-22T05:18:26;13.10;99.90
49224;DHT22;35050;51.316;5.994;2022-10-22T05:20:51;13.10;99.90
49224;DHT22;35050;51.316;5.994;2022-10-22T05:23:17;13.10;99.90
49224;DHT22;35050;51.316;5.994;2022-10-22T05:25:42;13.10;99.90
49224;DHT22;35050;51.316;5.994;2022-10-22T05:28:07;13.00;99.90
49224;DHT22;35050;51.316;5.994;2022-10-22T05:30:33;13.00;99.90
49224;DHT22;35050;51.316;5.994;2022-10-22T05:32:58;13.00;99.90
49224;DHT22;35050;51.316;5.994;2022-10-22T05:35:24;13.00;99.90
49224;DHT22;35050;51.316;5.994;2022-10-22T05:37:49;13.00;99.90
49224;DHT22;35050;51.316;5.994;2022-10-22T05:40:15;12.90;99.90
49224;DHT22;35050;51.316;5.994;2022-10-22T05:42:40;12.90;99.90
49224;DHT22;35050;51.316;5.994;2022-10-22T05:45:06;12.90;99.90
49224;DHT22;35050;51.316;5.994;2022-10-22T05:47:32;13.30;99.90
49224;DHT22;35050;51.316;5.994;2022-10-22T05:49:58;13.00;99.90
49224;DHT22;35050;51.316;5.994;2022-10-22T05:52:23;13.00;99.90
49224;DHT22;35050;51.316;5.994;2022-10-22T05:54:49;12.90;99.90
49224;DHT22;35050;51.316;5.994;2022-10-22T05:57:14;12.90;99.90
49224;DHT22;35050;51.316;5.994;2022-10-22T05:59:40;13.00;99.90
49224;DHT22;35050;51.316;5.994;2022-10-22T06:02:05;12.90;99.90
49224;DHT22;35050;51.316;5.994;2022-10-22T06:04:32;13.00;99.90
49224;DHT22;35050;51.316;5.994;2022-10-22T06:06:57;13.00;99.90
49224;DHT22;35050;51.316;5.994;2022-10-22T06:09:26;13.10;99.90
49224;DHT22;35050;51.316;5.994;2022-10-22T06:11:53;13.10;99.90
49224;DHT22;35050;51.316;5.994;2022-10-22T06:14:19;13.10;99.90
49224;DHT22;35050;51.316;5.994;2022-10-22T06:16:45;13.20;99.90
49224;DHT22;35050;51.316;5.994;2022-10-22T06:19:11;13.20;99.90
49224;DHT22;35050;51.316;5.994;2022-10-22T06:21:37;13.20;99.90
49224;DHT22;35050;51.316;5.994;2022-10-22T06:24:02;13.20;99.90
49224;DHT22;35050;51.316;5.994;2022-10-22T06:26:28;13.20;99.90
49224;DHT22;35050;51.316;5.994;2022-10-22T06:28:54;13.20;99.90
49224;DHT22;35050;51.316;5.994;2022-10-22T06:31:20;13.30;99.90
49224;DHT22;35050;51.316;5.994;2022-10-22T06:33:46;13.30;99.90
49224;DHT22;35050;51.316;5.994;2022-10-22T06:36:13;13.20;99.90
49224;DHT22;35050;51.316;5.994;2022-10-22T06:38:39;13.20;99.90
49224;DHT22;35050;51.316;5.994;2022-10-22T06:41:06;13.20;99.90
49224;DHT22;35050;51.316;5.994;2022-10-22T06:43:32;13.30;99.90
49224;DHT22;35050;51.316;5.994;2022-10-22T06:45:58;13.20;99.90
49224;DHT22;35050;51.316;5.994;2022-10-22T06:48:23;13.30;99.90
49224;DHT22;35050;51.316;5.994;2022-10-22T06:50:49;13.20;99.90
49224;DHT22;35050;51.316;5.994;2022-10-22T06:53:14;13.20;99.90
49224;DHT22;35050;51.316;5.994;2022-10-22T06:55:40;13.30;99.90
49224;DHT22;35050;51.316;5.994;2022-10-22T06:58:05;13.30;99.90
49224;DHT22;35050;51.316;5.994;2022-10-22T07:00:31;13.30;99.90
49224;DHT22;35050;51.316;5.994;2022-10-22T07:02:56;13.40;99.90
49224;DHT22;35050;51.316;5.994;2022-10-22T07:05:22;13.40;99.90
49224;DHT22;35050;51.316;5.994;2022-10-22T07:07:47;13.30;99.90
49224;DHT22;35050;51.316;5.994;2022-10-22T07:10:13;13.40;99.90
49224;DHT22;35050;51.316;5.994;2022-10-22T07:12:38;13.40;99.90
49224;DHT22;35050;51.316;5.994;2022-10-22T07:15:04;13.40;99.90
49224;DHT22;35050;51.316;5.994;2022-10-22T07:17:30;13.50;99.90
49224;DHT22;35050;51.316;5.994;2022-10-22T07:19:55;13.50;99.90
49224;DHT22;35050;51.316;5.994;2022-10-22T07:22:21;13.60;99.90
49224;DHT22;35050;51.316;5.994;2022-10-22T07:24:46;13.70;99.90
49224;DHT22;35050;51.316;5.994;2022-10-22T07:27:12;13.80;99.90
49224;DHT22;35050;51.316;5.994;2022-10-22T07:29:37;13.90;99.90
49224;DHT22;35050;51.316;5.994;2022-10-22T07:32:03;13.90;99.90
49224;DHT22;35050;51.316;5.994;2022-10-22T07:34:28;14.00;99.90
49224;DHT22;35050;51.316;5.994;2022-10-22T07:36:54;14.00;99.90
49224;DHT22;35050;51.316;5.994;2022-10-22T07:39:21;14.10;99.90
49224;DHT22;35050;51.316;5.994;2022-10-22T07:41:47;14.10;99.90
49224;DHT22;35050;51.316;5.994;2022-10-22T07:44:12;14.30;99.90
49224;DHT22;35050;51.316;5.994;2022-10-22T07:46:38;14.30;99.90
49224;DHT22;35050;51.316;5.994;2022-10-22T07:49:03;14.40;99.90
49224;DHT22;35050;51.316;5.994;2022-10-22T07:51:29;14.40;99.90
49224;DHT22;35050;51.316;5.994;2022-10-22T07:53:54;14.40;99.90
49224;DHT22;35050;51.316;5.994;2022-10-22T07:56:20;14.50;99.90
49224;DHT22;35050;51.316;5.994;2022-10-22T07:58:45;14.50;99.90
49224;DHT22;35050;51.316;5.994;2022-10-22T08:01:11;14.50;99.90
49224;DHT22;35050;51.316;5.994;2022-10-22T08:03:36;14.60;99.90
49224;DHT22;35050;51.316;5.994;2022-10-22T08:06:02;14.60;99.90
49224;DHT22;35050;51.316;5.994;2022-10-22T08:08:28;14.70;99.90
49224;DHT22;35050;51.316;5.994;2022-10-22T08:10:58;14.70;99.90
49224;DHT22;35050;51.316;5.994;2022-10-22T08:13:24;14.70;99.90
49224;DHT22;35050;51.316;5.994;2022-10-22T08:15:50;14.80;99.90
49224;DHT22;35050;51.316;5.994;2022-10-22T08:18:16;14.80;99.90
49224;DHT22;35050;51.316;5.994;2022-10-22T08:20:41;14.90;99.90
49224;DHT22;35050;51.316;5.994;2022-10-22T08:23:07;15.00;99.90
49224;DHT22;35050;51.316;5.994;2022-10-22T08:25:32;15.00;99.90
49224;DHT22;35050;51.316;5.994;2022-10-22T08:27:58;15.10;99.90
49224;DHT22;35050;51.316;5.994;2022-10-22T08:30:23;15.20;99.90
49224;DHT22;35050;51.316;5.994;2022-10-22T08:32:52;15.10;99.90
49224;DHT22;35050;51.316;5.994;2022-10-22T08:35:17;15.20;99.90
49224;DHT22;35050;51.316;5.994;2022-10-22T08:37:43;15.30;99.90
49224;DHT22;35050;51.316;5.994;2022-10-22T08:40:08;15.30;99.90
49224;DHT22;35050;51.316;5.994;2022-10-22T08:43:22;15.40;99.90
49224;DHT22;35050;51.316;5.994;2022-10-22T08:45:34;15.40;99.90
49224;DHT22;35050;51.316;5.994;2022-10-22T08:50:45;15.60;99.90
49224;DHT22;35050;51.316;5.994;2022-10-22T08:53:15;15.70;99.90
49224;DHT22;35050;51.316;5.994;2022-10-22T08:55:41;15.70;99.90
49224;DHT22;35050;51.316;5.994;2022-10-22T09:00:44;15.80;99.90
49224;DHT22;35050;51.316;5.994;2022-10-22T09:05:57;15.90;99.90
49224;DHT22;35050;51.316;5.994;2022-10-22T09:08:24;15.90;99.90
49224;DHT22;35050;51.316;5.994;2022-10-22T09:10:57;15.90;99.90
49224;DHT22;35050;51.316;5.994;2022-10-22T09:13:25;16.00;99.90
49224;DHT22;35050;51.316;5.994;2022-10-22T09:15:54;16.30;99.90
49224;DHT22;35050;51.316;5.994;2022-10-22T09:18:35;16.10;99.90
49224;DHT22;35050;51.316;5.994;2022-10-22T09:21:05;16.10;99.90
49224;DHT22;35050;51.316;5.994;2022-10-22T09:26:19;16.20;99.90
49224;DHT22;35050;51.316;5.994;2022-10-22T09:28:48;16.20;99.90
49224;DHT22;35050;51.316;5.994;2022-10-22T09:31:13;16.30;99.90
49224;DHT22;35050;51.316;5.994;2022-10-22T09:33:40;16.30;99.90
49224;DHT22;35050;51.316;5.994;2022-10-22T09:36:06;16.40;99.90
49224;DHT22;35050;51.316;5.994;2022-10-22T09:38:33;16.30;99.90
49224;DHT22;35050;51.316;5.994;2022-10-22T09:41:03;16.40;99.90
49224;DHT22;35050;51.316;5.994;2022-10-22T09:43:29;16.40;99.90
49224;DHT22;35050;51.316;5.994;2022-10-22T09:45:56;16.40;99.90
49224;DHT22;35050;51.316;5.994;2022-10-22T09:48:26;16.40;99.90
49224;DHT22;35050;51.316;5.994;2022-10-22T09:50:57;16.40;99.90
49224;DHT22;35050;51.316;5.994;2022-10-22T09:53:25;16.50;99.90
49224;DHT22;35050;51.316;5.994;2022-10-22T09:55:55;16.50;99.90
49224;DHT22;35050;51.316;5.994;2022-10-22T09:58:22;16.60;99.90
49224;DHT22;35050;51.316;5.994;2022-10-22T10:00:52;16.60;99.90
49224;DHT22;35050;51.316;5.994;2022-10-22T10:03:19;16.60;99.90
49224;DHT22;35050;51.316;5.994;2022-10-22T10:05:48;16.80;99.90
49224;DHT22;35050;51.316;5.994;2022-10-22T10:08:14;16.70;99.90
49224;DHT22;35050;51.316;5.994;2022-10-22T10:10:42;16.90;99.90
49224;DHT22;35050;51.316;5.994;2022-10-22T10:21:15;16.80;99.90
49224;DHT22;35050;51.316;5.994;2022-10-22T10:26:35;17.00;99.90
49224;DHT22;35050;51.316;5.994;2022-10-22T10:29:11;17.00;99.90
49224;DHT22;35050;51.316;5.994;2022-10-22T10:31:44;17.00;99.90
49224;DHT22;35050;51.316;5.994;2022-10-22T10:34:16;17.00;99.90
49224;DHT22;35050;51.316;5.994;2022-10-22T10:37:00;17.00;99.90
49224;DHT22;35050;51.316;5.994;2022-10-22T10:42:29;17.00;99.90
49224;DHT22;35050;51.316;5.994;2022-10-22T10:49:39;17.00;99.90
49224;DHT22;35050;51.316;5.994;2022-10-22T11:00:05;17.00;99.90
49224;DHT22;35050;51.316;5.994;2022-10-22T11:07:54;17.10;99.90
49224;DHT22;35050;51.316;5.994;2022-10-22T11:10:26;17.10;99.90
49224;DHT22;35050;51.316;5.994;2022-10-22T11:12:54;17.10;99.90
49224;DHT22;35050;51.316;5.994;2022-10-22T11:15:31;17.10;99.90
49224;DHT22;35050;51.316;5.994;2022-10-22T11:18:11;17.20;99.90
49224;DHT22;35050;51.316;5.994;2022-10-22T11:23:05;17.30;99.90
49224;DHT22;35050;51.316;5.994;2022-10-22T11:25:34;17.30;99.90
49224;DHT22;35050;51.316;5.994;2022-10-22T11:30:56;17.30;99.90
49224;DHT22;35050;51.316;5.994;2022-10-22T11:33:23;17.40;99.90
49224;DHT22;35050;51.316;5.994;2022-10-22T11:35:50;17.30;99.90
49224;DHT22;35050;51.316;5.994;2022-10-22T11:38:19;17.40;99.90
49224;DHT22;35050;51.316;5.994;2022-10-22T11:40:50;17.40;99.90
49224;DHT22;35050;51.316;5.994;2022-10-22T11:43:30;17.50;99.90
49224;DHT22;35050;51.316;5.994;2022-10-22T11:48:39;17.60;99.90
49224;DHT22;35050;51.316;5.994;2022-10-22T11:51:27;17.60;99.90
49224;DHT22;35050;51.316;5.994;2022-10-22T11:53:54;17.60;99.90
49224;DHT22;35050;51.316;5.994;2022-10-22T11:56:22;17.70;99.90
49224;DHT22;35050;51.316;5.994;2022-10-22T11:58:48;17.90;99.90
49224;DHT22;35050;51.316;5.994;2022-10-22T12:01:20;18.30;99.90
49224;DHT22;35050;51.316;5.994;2022-10-22T12:04:14;18.30;99.90
49224;DHT22;35050;51.316;5.994;2022-10-22T12:06:51;18.50;99.90
49224;DHT22;35050;51.316;5.994;2022-10-22T12:09:17;18.30;99.90
49224;DHT22;35050;51.316;5.994;2022-10-22T12:11:46;18.20;99.90
49224;DHT22;35050;51.316;5.994;2022-10-22T12:16:50;18.40;99.90
49224;DHT22;35050;51.316;5.994;2022-10-22T12:19:17;18.50;99.90
49224;DHT22;35050;51.316;5.994;2022-10-22T12:21:52;19.20;99.90
49224;DHT22;35050;51.316;5.994;2022-10-22T12:24:19;19.40;99.90
49224;DHT22;35050;51.316;5.994;2022-10-22T12:26:45;19.30;99.90
49224;DHT22;35050;51.316;5.994;2022-10-22T12:29:12;18.90;99.90
49224;DHT22;35050;51.316;5.994;2022-10-22T12:31:39;18.90;99.90
49224;DHT22;35050;51.316;5.994;2022-10-22T12:34:05;18.70;99.90
49224;DHT22;35050;51.316;5.994;2022-10-22T12:36:33;18.60;99.90
49224;DHT22;35050;51.316;5.994;2022-10-22T12:38:59;18.50;99.90
49224;DHT22;35050;51.316;5.994;2022-10-22T12:41:31;18.60;99.90
49224;DHT22;35050;51.316;5.994;2022-10-22T12:43:57;18.60;99.90
49224;DHT22;35050;51.316;5.994;2022-10-22T12:46:23;18.60;99.90
49224;DHT22;35050;51.316;5.994;2022-10-22T12:48:49;18.60;99.90
49224;DHT22;35050;51.316;5.994;2022-10-22T12:51:15;18.60;99.90
49224;DHT22;35050;51.316;5.994;2022-10-22T12:53:43;18.50;99.90
49224;DHT22;35050;51.316;5.994;2022-10-22T12:56:11;18.50;99.90
49224;DHT22;35050;51.316;5.994;2022-10-22T12:58:38;18.50;99.90
49224;DHT22;35050;51.316;5.994;2022-10-22T13:01:05;18.50;99.90
49224;DHT22;35050;51.316;5.994;2022-10-22T13:03:40;18.40;99.90
49224;DHT22;35050;51.316;5.994;2022-10-22T13:06:13;18.40;99.90
49224;DHT22;35050;51.316;5.994;2022-10-22T13:08:39;18.70;99.90
49224;DHT22;35050;51.316;5.994;2022-10-22T13:11:06;18.70;99.90
49224;DHT22;35050;51.316;5.994;2022-10-22T13:13:32;18.60;99.90
49224;DHT22;35050;51.316;5.994;2022-10-22T13:18:39;18.70;99.90
49224;DHT22;35050;51.316;5.994;2022-10-22T13:21:05;18.60;99.90
49224;DHT22;35050;51.316;5.994;2022-10-22T13:23:50;18.50;99.90
49224;DHT22;35050;51.316;5.994;2022-10-22T13:26:16;18.40;99.90
49224;DHT22;35050;51.316;5.994;2022-10-22T13:28:48;18.30;99.90
49224;DHT22;35050;51.316;5.994;2022-10-22T13:31:15;18.40;99.90
49224;DHT22;35050;51.316;5.994;2022-10-22T13:33:42;18.50;99.90
49224;DHT22;35050;51.316;5.994;2022-10-22T13:36:10;18.50;99.90
49224;DHT22;35050;51.316;5.994;2022-10-22T13:38:37;18.50;99.90
49224;DHT22;35050;51.316;5.994;2022-10-22T13:41:02;18.70;99.90
49224;DHT22;35050;51.316;5.994;2022-10-22T13:43:29;19.60;99.90
49224;DHT22;35050;51.316;5.994;2022-10-22T13:45:56;19.30;99.90
49224;DHT22;35050;51.316;5.994;2022-10-22T13:48:23;19.00;99.90
49224;DHT22;35050;51.316;5.994;2022-10-22T13:50:49;19.00;99.90
49224;DHT22;35050;51.316;5.994;2022-10-22T13:53:17;18.90;99.90
49224;DHT22;35050;51.316;5.994;2022-10-22T13:55:43;18.90;99.90
49224;DHT22;35050;51.316;5.994;2022-10-22T13:58:13;19.10;99.90
49224;DHT22;35050;51.316;5.994;2022-10-22T14:00:40;19.00;99.90
49224;DHT22;35050;51.316;5.994;2022-10-22T14:03:14;18.80;99.90
49224;DHT22;35050;51.316;5.994;2022-10-22T14:05:40;18.50;99.90
49224;DHT22;35050;51.316;5.994;2022-10-22T14:08:13;18.50;99.90
49224;DHT22;35050;51.316;5.994;2022-10-22T14:10:39;18.50;99.90
49224;DHT22;35050;51.316;5.994;2022-10-22T14:13:05;18.60;99.90
49224;DHT22;35050;51.316;5.994;2022-10-22T14:15:32;18.50;99.90
49224;DHT22;35050;51.316;5.994;2022-10-22T14:17:58;18.40;99.90
49224;DHT22;35050;51.316;5.994;2022-10-22T14:20:25;18.40;99.90
49224;DHT22;35050;51.316;5.994;2022-10-22T14:22:52;18.20;99.90
49224;DHT22;35050;51.316;5.994;2022-10-22T14:25:18;18.30;99.90
49224;DHT22;35050;51.316;5.994;2022-10-22T14:27:44;18.20;99.90
49224;DHT22;35050;51.316;5.994;2022-10-22T14:30:13;18.30;99.90
49224;DHT22;35050;51.316;5.994;2022-10-22T14:32:39;18.20;99.90
49224;DHT22;35050;51.316;5.994;2022-10-22T14:35:05;18.50;99.90
49224;DHT22;35050;51.316;5.994;2022-10-22T14:37:30;18.60;99.90
49224;DHT22;35050;51.316;5.994;2022-10-22T14:39:56;18.30;99.90
49224;DHT22;35050;51.316;5.994;2022-10-22T14:42:26;18.20;99.90
49224;DHT22;35050;51.316;5.994;2022-10-22T14:44:51;18.20;99.90
49224;DHT22;35050;51.316;5.994;2022-10-22T14:47:17;18.20;99.90
49224;DHT22;35050;51.316;5.994;2022-10-22T14:49:42;18.00;99.90
49224;DHT22;35050;51.316;5.994;2022-10-22T14:52:08;18.10;99.90
49224;DHT22;35050;51.316;5.994;2022-10-22T14:54:33;18.10;99.90
49224;DHT22;35050;51.316;5.994;2022-10-22T14:57:00;18.10;99.90
49224;DHT22;35050;51.316;5.994;2022-10-22T14:59:26;18.10;99.90
49224;DHT22;35050;51.316;5.994;2022-10-22T15:01:51;18.10;99.90
49224;DHT22;35050;51.316;5.994;2022-10-22T15:04:17;18.10;99.90
49224;DHT22;35050;51.316;5.994;2022-10-22T15:06:42;18.10;99.90
49224;DHT22;35050;51.316;5.994;2022-10-22T15:09:08;18.00;99.90
49224;DHT22;35050;51.316;5.994;2022-10-22T15:11:33;17.80;99.90
49224;DHT22;35050;51.316;5.994;2022-10-22T15:13:59;17.90;99.90
49224;DHT22;35050;51.316;5.994;2022-10-22T15:16:24;17.80;99.90
49224;DHT22;35050;51.316;5.994;2022-10-22T15:18:50;17.70;99.90
49224;DHT22;35050;51.316;5.994;2022-10-22T15:21:18;17.70;99.90
49224;DHT22;35050;51.316;5.994;2022-10-22T15:23:44;17.70;99.90
49224;DHT22;35050;51.316;5.994;2022-10-22T15:26:10;17.70;99.90
49224;DHT22;35050;51.316;5.994;2022-10-22T15:28:36;17.70;99.90
49224;DHT22;35050;51.316;5.994;2022-10-22T15:31:02;17.70;99.90
49224;DHT22;35050;51.316;5.994;2022-10-22T15:33:28;17.60;99.90
49224;DHT22;35050;51.316;5.994;2022-10-22T15:35:54;17.60;99.90
49224;DHT22;35050;51.316;5.994;2022-10-22T15:38:19;17.50;99.90
49224;DHT22;35050;51.316;5.994;2022-10-22T15:40:45;17.50;99.90
49224;DHT22;35050;51.316;5.994;2022-10-22T15:43:10;17.40;99.90
49224;DHT22;35050;51.316;5.994;2022-10-22T15:45:36;17.50;99.90
49224;DHT22;35050;51.316;5.994;2022-10-22T15:48:02;17.40;99.90
49224;DHT22;35050;51.316;5.994;2022-10-22T15:50:27;17.40;99.90
49224;DHT22;35050;51.316;5.994;2022-10-22T15:52:53;17.30;99.90
49224;DHT22;35050;51.316;5.994;2022-10-22T15:55:19;17.20;99.90
49224;DHT22;35050;51.316;5.994;2022-10-22T15:57:45;17.30;99.90
49224;DHT22;35050;51.316;5.994;2022-10-22T16:00:10;17.30;99.90
49224;DHT22;35050;51.316;5.994;2022-10-22T16:02:36;17.20;99.90
49224;DHT22;35050;51.316;5.994;2022-10-22T16:05:01;17.20;99.90
49224;DHT22;35050;51.316;5.994;2022-10-22T16:07:28;17.20;99.90
49224;DHT22;35050;51.316;5.994;2022-10-22T16:09:54;17.00;99.90
49224;DHT22;35050;51.316;5.994;2022-10-22T16:12:20;17.00;99.90
49224;DHT22;35050;51.316;5.994;2022-10-22T16:14:48;17.00;99.90
49224;DHT22;35050;51.316;5.994;2022-10-22T16:17:13;16.90;99.90
49224;DHT22;35050;51.316;5.994;2022-10-22T16:19:39;16.90;99.90
49224;DHT22;35050;51.316;5.994;2022-10-22T16:22:04;16.80;99.90
49224;DHT22;35050;51.316;5.994;2022-10-22T16:24:33;16.70;99.90
49224;DHT22;35050;51.316;5.994;2022-10-22T16:26:59;16.70;99.90
49224;DHT22;35050;51.316;5.994;2022-10-22T16:29:25;16.70;99.90
49224;DHT22;35050;51.316;5.994;2022-10-22T16:31:50;16.70;99.90
49224;DHT22;35050;51.316;5.994;2022-10-22T16:34:16;16.50;99.90
49224;DHT22;35050;51.316;5.994;2022-10-22T16:36:41;16.50;99.90
49224;DHT22;35050;51.316;5.994;2022-10-22T16:39:08;16.50;99.90
49224;DHT22;35050;51.316;5.994;2022-10-22T16:41:33;16.40;99.90
49224;DHT22;35050;51.316;5.994;2022-10-22T16:44:00;16.30;99.90
49224;DHT22;35050;51.316;5.994;2022-10-22T16:46:27;16.30;99.90
49224;DHT22;35050;51.316;5.994;2022-10-22T16:48:53;16.30;99.90
49224;DHT22;35050;51.316;5.994;2022-10-22T16:51:22;16.20;99.90